sensor_id;sensor_type;location;lat;lon;timestamp;temperature;humidity
4757;DHT22;2392;52.578;13.426;2024-02-21T00:01:21;8.70;99.90
4757;DHT22;2392;52.578;13.426;2024-02-21T00:03:48;8.70;99.90
4757;DHT22;2392;52.578;13.426;2024-02-21T00:06:15;8.60;99.90
4757;DHT22;2392;52.578;13.426;2024-02-21T00:08:41;8.70;99.90
4757;DHT22;2392;52.578;13.426;2024-02-21T00:11:08;8.60;99.90
4757;DHT22;2392;52.578;13.426;2024-02-21T00:13:35;8.60;99.90
4757;DHT22;2392;52.578;13.426;2024-02-21T00:16:03;8.60;99.90
4757;DHT22;2392;52.578;13.426;2024-02-21T00:18:30;8.60;99.90
4757;DHT22;2392;52.578;13.426;2024-02-21T00:20:57;8.60;99.90
4757;DHT22;2392;52.578;13.426;2024-02-21T00:23:23;8.60;99.90
4757;DHT22;2392;52.578;13.426;2024-02-21T00:25:50;8.60;99.90
4757;DHT22;2392;52.578;13.426;2024-02-21T00:28:17;8.60;99.90
4757;DHT22;2392;52.578;13.426;2024-02-21T00:30:43;8.60;99.90
4757;DHT22;2392;52.578;13.426;2024-02-21T00:33:11;8.60;99.90
4757;DHT22;2392;52.578;13.426;2024-02-21T00:35:38;8.60;99.90
4757;DHT22;2392;52.578;13.426;2024-02-21T00:38:05;8.60;99.90
4757;DHT22;2392;52.578;13.426;2024-02-21T00:40:31;8.60;99.90
4757;DHT22;2392;52.578;13.426;2024-02-21T00:42:58;8.60;99.90
4757;DHT22;2392;52.578;13.426;2024-02-21T00:45:25;8.50;99.90
4757;DHT22;2392;52.578;13.426;2024-02-21T00:47:51;8.60;99.90
4757;DHT22;2392;52.578;13.426;2024-02-21T00:50:20;8.60;99.90
4757;DHT22;2392;52.578;13.426;2024-02-21T00:52:46;8.50;99.90
4757;DHT22;2392;52.578;13.426;2024-02-21T00:55:14;8.60;99.90
4757;DHT22;2392;52.578;13.426;2024-02-21T00:57:40;8.50;99.90
4757;DHT22;2392;52.578;13.426;2024-02-21T01:00:08;8.50;99.90
4757;DHT22;2392;52.578;13.426;2024-02-21T01:02:35;8.50;99.90
4757;DHT22;2392;52.578;13.426;2024-02-21T01:05:02;8.50;99.90
4757;DHT22;2392;52.578;13.426;2024-02-21T01:07:30;8.50;99.90
4757;DHT22;2392;52.578;13.426;2024-02-21T01:09:56;8.50;99.90
4757;DHT22;2392;52.578;13.426;2024-02-21T01:12:23;8.50;99.90
4757;DHT22;2392;52.578;13.426;2024-02-21T01:14:50;8.40;99.90
4757;DHT22;2392;52.578;13.426;2024-02-21T01:17:16;8.40;99.90
4757;DHT22;2392;52.578;13.426;2024-02-21T01:19:46;8.40;99.90
4757;DHT22;2392;52.578;13.426;2024-02-21T01:22:12;8.40;99.90
4757;DHT22;2392;52.578;13.426;2024-02-21T01:24:41;8.40;99.90
4757;DHT22;2392;52.578;13.426;2024-02-21T01:27:08;8.50;99.90
4757;DHT22;2392;52.578;13.426;2024-02-21T01:29:35;8.50;99.90
4757;DHT22;2392;52.578;13.426;2024-02-21T01:32:01;8.50;99.90
4757;DHT22;2392;52.578;13.426;2024-02-21T01:34:28;8.50;99.90
4757;DHT22;2392;52.578;13.426;2024-02-21T01:36:55;8.50;99.90
4757;DHT22;2392;52.578;13.426;2024-02-21T01:39:21;8.50;99.90
4757;DHT22;2392;52.578;13.426;2024-02-21T01:41:49;8.50;99.90
4757;DHT22;2392;52.578;13.426;2024-02-21T01:44:16;8.50;99.90
4757;DHT22;2392;52.578;13.426;2024-02-21T01:46:43;8.50;99.90
4757;DHT22;2392;52.578;13.426;2024-02-21T01:49:10;8.50;99.90
4757;DHT22;2392;52.578;13.426;2024-02-21T01:51:37;8.50;99.90
4757;DHT22;2392;52.578;13.426;2024-02-21T01:54:04;8.50;99.90
4757;DHT22;2392;52.578;13.426;2024-02-21T01:56:31;8.50;99.90
4757;DHT22;2392;52.578;13.426;2024-02-21T01:58:59;8.50;99.90
4757;DHT22;2392;52.578;13.426;2024-02-21T02:01:26;8.50;99.90
4757;DHT22;2392;52.578;13.426;2024-02-21T02:03:53;8.50;99.90
4757;DHT22;2392;52.578;13.426;2024-02-21T02:06:21;8.50;99.90
4757;DHT22;2392;52.578;13.426;2024-02-21T02:08:48;8.50;99.90
4757;DHT22;2392;52.578;13.426;2024-02-21T02:11:15;8.50;99.90
4757;DHT22;2392;52.578;13.426;2024-02-21T02:13:42;8.50;99.90
4757;DHT22;2392;52.578;13.426;2024-02-21T02:16:10;8.60;99.90
4757;DHT22;2392;52.578;13.426;2024-02-21T02:18:36;8.50;99.90
4757;DHT22;2392;52.578;13.426;2024-02-21T02:21:04;8.60;99.90
4757;DHT22;2392;52.578;13.426;2024-02-21T02:23:33;8.60;99.90
4757;DHT22;2392;52.578;13.426;2024-02-21T02:26:00;8.50;99.90
4757;DHT22;2392;52.578;13.426;2024-02-21T02:28:27;8.50;99.90
4757;DHT22;2392;52.578;13.426;2024-02-21T02:30:54;8.50;99.90
4757;DHT22;2392;52.578;13.426;2024-02-21T02:33:20;8.50;99.90
4757;DHT22;2392;52.578;13.426;2024-02-21T02:35:47;8.40;99.90
4757;DHT22;2392;52.578;13.426;2024-02-21T02:38:13;8.40;99.90
4757;DHT22;2392;52.578;13.426;2024-02-21T02:40:42;8.40;99.90
4757;DHT22;2392;52.578;13.426;2024-02-21T02:43:09;8.40;99.90
4757;DHT22;2392;52.578;13.426;2024-02-21T02:45:36;8.40;99.90
4757;DHT22;2392;52.578;13.426;2024-02-21T02:48:03;8.30;99.90
4757;DHT22;2392;52.578;13.426;2024-02-21T02:50:30;8.30;99.90
4757;DHT22;2392;52.578;13.426;2024-02-21T02:52:56;8.30;99.90
4757;DHT22;2392;52.578;13.426;2024-02-21T02:55:23;8.30;99.90
4757;DHT22;2392;52.578;13.426;2024-02-21T02:57:52;8.20;99.90
4757;DHT22;2392;52.578;13.426;2024-02-21T03:00:19;8.20;99.90
4757;DHT22;2392;52.578;13.426;2024-02-21T03:02:49;8.20;99.90
4757;DHT22;2392;52.578;13.426;2024-02-21T03:05:17;8.10;99.90
4757;DHT22;2392;52.578;13.426;2024-02-21T03:07:45;8.10;99.90
4757;DHT22;2392;52.578;13.426;2024-02-21T03:10:12;8.10;99.90
4757;DHT22;2392;52.578;13.426;2024-02-21T03:12:39;8.00;99.90
4757;DHT22;2392;52.578;13.426;2024-02-21T03:15:08;8.00;99.90
4757;DHT22;2392;52.578;13.426;2024-02-21T03:17:34;8.00;99.90
4757;DHT22;2392;52.578;13.426;2024-02-21T03:20:01;8.00;99.90
4757;DHT22;2392;52.578;13.426;2024-02-21T03:22:30;7.90;99.90
4757;DHT22;2392;52.578;13.426;2024-02-21T03:24:57;7.90;99.90
4757;DHT22;2392;52.578;13.426;2024-02-21T03:27:24;8.00;99.90
4757;DHT22;2392;52.578;13.426;2024-02-21T03:29:50;7.90;99.90
4757;DHT22;2392;52.578;13.426;2024-02-21T03:32:18;7.90;99.90
4757;DHT22;2392;52.578;13.426;2024-02-21T03:34:45;7.90;99.90
4757;DHT22;2392;52.578;13.426;2024-02-21T03:37:12;7.90;99.90
4757;DHT22;2392;52.578;13.426;2024-02-21T03:39:39;7.90;99.90
4757;DHT22;2392;52.578;13.426;2024-02-21T03:42:06;7.90;99.90
4757;DHT22;2392;52.578;13.426;2024-02-21T03:44:33;7.90;99.90
4757;DHT22;2392;52.578;13.426;2024-02-21T03:47:00;7.90;99.90
4757;DHT22;2392;52.578;13.426;2024-02-21T03:49:28;7.80;99.90
4757;DHT22;2392;52.578;13.426;2024-02-21T03:51:54;7.80;99.90
4757;DHT22;2392;52.578;13.426;2024-02-21T03:54:21;7.70;99.90
4757;DHT22;2392;52.578;13.426;2024-02-21T03:56:48;7.70;99.90
4757;DHT22;2392;52.578;13.426;2024-02-21T03:59:14;7.70;99.90
4757;DHT22;2392;52.578;13.426;2024-02-21T04:01:41;7.70;99.90
4757;DHT22;2392;52.578;13.426;2024-02-21T04:04:09;7.70;99.90
4757;DHT22;2392;52.578;13.426;2024-02-21T04:06:45;7.70;99.90
4757;DHT22;2392;52.578;13.426;2024-02-21T04:09:12;7.70;99.90
4757;DHT22;2392;52.578;13.426;2024-02-21T04:11:38;7.70;99.90
4757;DHT22;2392;52.578;13.426;2024-02-21T04:14:05;7.70;99.90
4757;DHT22;2392;52.578;13.426;2024-02-21T04:16:32;7.80;99.90
4757;DHT22;2392;52.578;13.426;2024-02-21T04:18:59;7.80;99.90
4757;DHT22;2392;52.578;13.426;2024-02-21T04:21:27;7.80;99.90
4757;DHT22;2392;52.578;13.426;2024-02-21T04:23:55;7.80;99.90
4757;DHT22;2392;52.578;13.426;2024-02-21T04:26:22;7.80;99.90
4757;DHT22;2392;52.578;13.426;2024-02-21T04:28:48;7.80;99.90
4757;DHT22;2392;52.578;13.426;2024-02-21T04:31:15;7.80;99.90
4757;DHT22;2392;52.578;13.426;2024-02-21T04:33:41;7.80;99.90
4757;DHT22;2392;52.578;13.426;2024-02-21T04:36:08;7.80;99.90
4757;DHT22;2392;52.578;13.426;2024-02-21T04:38:35;7.80;99.90
4757;DHT22;2392;52.578;13.426;2024-02-21T04:41:03;7.80;99.90
4757;DHT22;2392;52.578;13.426;2024-02-21T04:43:29;7.90;99.90
4757;DHT22;2392;52.578;13.426;2024-02-21T04:45:56;7.90;99.90
4757;DHT22;2392;52.578;13.426;2024-02-21T04:48:23;7.90;99.90
4757;DHT22;2392;52.578;13.426;2024-02-21T04:50:49;7.90;99.90
4757;DHT22;2392;52.578;13.426;2024-02-21T04:53:16;7.90;99.90
4757;DHT22;2392;52.578;13.426;2024-02-21T04:55:43;7.90;99.90
4757;DHT22;2392;52.578;13.426;2024-02-21T04:58:11;7.90;99.90
4757;DHT22;2392;52.578;13.426;2024-02-21T05:00:37;7.80;99.90
4757;DHT22;2392;52.578;13.426;2024-02-21T05:03:04;7.80;99.90
4757;DHT22;2392;52.578;13.426;2024-02-21T05:05:31;7.90;99.90
4757;DHT22;2392;52.578;13.426;2024-02-21T05:07:57;7.90;99.90
4757;DHT22;2392;52.578;13.426;2024-02-21T05:10:24;7.90;99.90
4757;DHT22;2392;52.578;13.426;2024-02-21T05:12:51;7.90;99.90
4757;DHT22;2392;52.578;13.426;2024-02-21T05:15:18;7.90;99.90
4757;DHT22;2392;52.578;13.426;2024-02-21T05:17:46;7.90;99.90
4757;DHT22;2392;52.578;13.426;2024-02-21T05:20:13;7.90;99.90
4757;DHT22;2392;52.578;13.426;2024-02-21T05:22:40;7.90;99.90
4757;DHT22;2392;52.578;13.426;2024-02-21T05:25:07;7.80;99.90
4757;DHT22;2392;52.578;13.426;2024-02-21T05:27:34;7.90;99.90
4757;DHT22;2392;52.578;13.426;2024-02-21T05:30:02;7.80;99.90
4757;DHT22;2392;52.578;13.426;2024-02-21T05:32:30;7.90;99.90
4757;DHT22;2392;52.578;13.426;2024-02-21T05:34:57;7.90;99.90
4757;DHT22;2392;52.578;13.426;2024-02-21T05:37:24;7.90;99.90
4757;DHT22;2392;52.578;13.426;2024-02-21T05:39:51;7.80;99.90
4757;DHT22;2392;52.578;13.426;2024-02-21T05:42:17;7.90;99.90
4757;DHT22;2392;52.578;13.426;2024-02-21T05:44:44;7.90;99.90
4757;DHT22;2392;52.578;13.426;2024-02-21T05:47:11;7.90;99.90
4757;DHT22;2392;52.578;13.426;2024-02-21T05:49:41;7.90;99.90
4757;DHT22;2392;52.578;13.426;2024-02-21T05:52:08;7.90;99.90
4757;DHT22;2392;52.578;13.426;2024-02-21T05:54:37;7.90;99.90
4757;DHT22;2392;52.578;13.426;2024-02-21T05:57:04;7.90;99.90
4757;DHT22;2392;52.578;13.426;2024-02-21T05:59:31;7.90;99.90
4757;DHT22;2392;52.578;13.426;2024-02-21T06:01:58;7.90;99.90
4757;DHT22;2392;52.578;13.426;2024-02-21T06:04:25;7.90;99.90
4757;DHT22;2392;52.578;13.426;2024-02-21T06:06:52;7.90;99.90
4757;DHT22;2392;52.578;13.426;2024-02-21T06:09:19;7.90;99.90
4757;DHT22;2392;52.578;13.426;2024-02-21T06:11:46;7.90;99.90
4757;DHT22;2392;52.578;13.426;2024-02-21T06:14:14;7.90;99.90
4757;DHT22;2392;52.578;13.426;2024-02-21T06:16:41;7.90;99.90
4757;DHT22;2392;52.578;13.426;2024-02-21T06:19:07;7.90;99.90
4757;DHT22;2392;52.578;13.426;2024-02-21T06:21:34;7.90;99.90
4757;DHT22;2392;52.578;13.426;2024-02-21T06:24:03;7.90;99.90
4757;DHT22;2392;52.578;13.426;2024-02-21T06:26:29;8.00;99.90
4757;DHT22;2392;52.578;13.426;2024-02-21T06:28:56;8.00;99.90
4757;DHT22;2392;52.578;13.426;2024-02-21T06:31:25;8.00;99.90
4757;DHT22;2392;52.578;13.426;2024-02-21T06:33:51;8.00;99.90
4757;DHT22;2392;52.578;13.426;2024-02-21T06:36:18;8.00;99.90
4757;DHT22;2392;52.578;13.426;2024-02-21T06:38:44;8.00;99.90
4757;DHT22;2392;52.578;13.426;2024-02-21T06:41:16;8.00;99.90
4757;DHT22;2392;52.578;13.426;2024-02-21T06:43:44;8.00;99.90
4757;DHT22;2392;52.578;13.426;2024-02-21T06:46:11;8.10;99.90
4757;DHT22;2392;52.578;13.426;2024-02-21T06:48:38;8.10;99.90
4757;DHT22;2392;52.578;13.426;2024-02-21T06:51:04;8.10;99.90
4757;DHT22;2392;52.578;13.426;2024-02-21T06:53:31;8.10;99.90
4757;DHT22;2392;52.578;13.426;2024-02-21T06:55:57;8.10;99.90
4757;DHT22;2392;52.578;13.426;2024-02-21T06:58:26;8.10;99.90
4757;DHT22;2392;52.578;13.426;2024-02-21T07:00:52;8.10;99.90
4757;DHT22;2392;52.578;13.426;2024-02-21T07:03:19;8.20;99.90
4757;DHT22;2392;52.578;13.426;2024-02-21T07:05:46;8.20;99.90
4757;DHT22;2392;52.578;13.426;2024-02-21T07:08:12;8.30;99.90
4757;DHT22;2392;52.578;13.426;2024-02-21T07:10:39;8.30;99.90
4757;DHT22;2392;52.578;13.426;2024-02-21T07:13:06;8.20;99.90
4757;DHT22;2392;52.578;13.426;2024-02-21T07:15:34;8.20;99.90
4757;DHT22;2392;52.578;13.426;2024-02-21T07:18:01;8.20;99.90
4757;DHT22;2392;52.578;13.426;2024-02-21T07:20:28;8.20;99.90
4757;DHT22;2392;52.578;13.426;2024-02-21T07:22:55;8.30;99.90
4757;DHT22;2392;52.578;13.426;2024-02-21T07:25:22;8.30;99.90
4757;DHT22;2392;52.578;13.426;2024-02-21T07:27:48;8.30;99.90
4757;DHT22;2392;52.578;13.426;2024-02-21T07:30:15;8.30;99.90
4757;DHT22;2392;52.578;13.426;2024-02-21T07:32:43;8.30;99.90
4757;DHT22;2392;52.578;13.426;2024-02-21T07:35:10;8.40;99.90
4757;DHT22;2392;52.578;13.426;2024-02-21T07:37:37;8.40;99.90
4757;DHT22;2392;52.578;13.426;2024-02-21T07:40:05;8.40;99.90
4757;DHT22;2392;52.578;13.426;2024-02-21T07:42:32;8.40;99.90
4757;DHT22;2392;52.578;13.426;2024-02-21T07:44:59;8.50;99.90
4757;DHT22;2392;52.578;13.426;2024-02-21T07:47:26;8.50;99.90
4757;DHT22;2392;52.578;13.426;2024-02-21T07:49:54;8.50;99.90
4757;DHT22;2392;52.578;13.426;2024-02-21T07:52:21;8.50;99.90
4757;DHT22;2392;52.578;13.426;2024-02-21T07:54:50;8.50;99.90
4757;DHT22;2392;52.578;13.426;2024-02-21T07:57:17;8.50;99.90
4757;DHT22;2392;52.578;13.426;2024-02-21T07:59:44;8.50;99.90
4757;DHT22;2392;52.578;13.426;2024-02-21T08:02:13;8.50;99.90
4757;DHT22;2392;52.578;13.426;2024-02-21T08:04:39;8.50;99.90
4757;DHT22;2392;52.578;13.426;2024-02-21T08:07:08;8.60;99.90
4757;DHT22;2392;52.578;13.426;2024-02-21T08:09:34;8.60;99.90
4757;DHT22;2392;52.578;13.426;2024-02-21T08:12:03;8.60;99.90
4757;DHT22;2392;52.578;13.426;2024-02-21T08:14:30;8.60;99.90
4757;DHT22;2392;52.578;13.426;2024-02-21T08:16:57;8.60;99.90
4757;DHT22;2392;52.578;13.426;2024-02-21T08:19:25;8.70;99.90
4757;DHT22;2392;52.578;13.426;2024-02-21T08:21:51;8.70;99.90
4757;DHT22;2392;52.578;13.426;2024-02-21T08:24:19;8.70;99.90
4757;DHT22;2392;52.578;13.426;2024-02-21T08:26:48;8.70;99.90
4757;DHT22;2392;52.578;13.426;2024-02-21T08:29:15;8.70;99.90
4757;DHT22;2392;52.578;13.426;2024-02-21T08:31:42;8.80;99.90
4757;DHT22;2392;52.578;13.426;2024-02-21T08:34:09;8.80;99.90
4757;DHT22;2392;52.578;13.426;2024-02-21T08:36:36;8.80;99.90
4757;DHT22;2392;52.578;13.426;2024-02-21T08:39:03;8.90;99.90
4757;DHT22;2392;52.578;13.426;2024-02-21T08:41:32;8.90;99.90
4757;DHT22;2392;52.578;13.426;2024-02-21T08:44:00;9.00;99.90
4757;DHT22;2392;52.578;13.426;2024-02-21T08:46:27;9.00;99.90
4757;DHT22;2392;52.578;13.426;2024-02-21T08:48:55;9.10;99.90
4757;DHT22;2392;52.578;13.426;2024-02-21T08:51:22;9.10;99.90
4757;DHT22;2392;52.578;13.426;2024-02-21T08:53:49;9.30;99.90
4757;DHT22;2392;52.578;13.426;2024-02-21T08:56:16;9.30;99.90
4757;DHT22;2392;52.578;13.426;2024-02-21T08:58:45;9.30;99.90
4757;DHT22;2392;52.578;13.426;2024-02-21T09:01:12;9.40;99.90
4757;DHT22;2392;52.578;13.426;2024-02-21T09:03:39;9.40;99.90
4757;DHT22;2392;52.578;13.426;2024-02-21T09:06:06;9.40;99.90
4757;DHT22;2392;52.578;13.426;2024-02-21T09:08:34;9.50;99.90
4757;DHT22;2392;52.578;13.426;2024-02-21T09:11:01;9.50;99.90
4757;DHT22;2392;52.578;13.426;2024-02-21T09:13:28;9.50;99.90
4757;DHT22;2392;52.578;13.426;2024-02-21T09:15:57;9.50;99.90
4757;DHT22;2392;52.578;13.426;2024-02-21T09:18:24;9.50;99.90
4757;DHT22;2392;52.578;13.426;2024-02-21T09:20:50;9.50;99.90
4757;DHT22;2392;52.578;13.426;2024-02-21T09:23:17;9.50;99.90
4757;DHT22;2392;52.578;13.426;2024-02-21T09:25:45;9.40;99.90
4757;DHT22;2392;52.578;13.426;2024-02-21T09:28:12;9.50;99.90
4757;DHT22;2392;52.578;13.426;2024-02-21T09:30:39;9.50;99.90
4757;DHT22;2392;52.578;13.426;2024-02-21T09:33:07;9.60;99.90
4757;DHT22;2392;52.578;13.426;2024-02-21T09:35:34;9.60;99.90
4757;DHT22;2392;52.578;13.426;2024-02-21T09:38:01;9.50;99.90
4757;DHT22;2392;52.578;13.426;2024-02-21T09:40:28;9.60;99.90
4757;DHT22;2392;52.578;13.426;2024-02-21T09:43:02;9.70;99.90
4757;DHT22;2392;52.578;13.426;2024-02-21T09:45:33;9.80;99.90
4757;DHT22;2392;52.578;13.426;2024-02-21T09:48:31;9.80;99.90
4757;DHT22;2392;52.578;13.426;2024-02-21T09:51:01;9.90;99.90
4757;DHT22;2392;52.578;13.426;2024-02-21T09:53:29;10.00;99.90
4757;DHT22;2392;52.578;13.426;2024-02-21T09:55:57;10.20;99.90
4757;DHT22;2392;52.578;13.426;2024-02-21T09:58:25;10.20;99.90
4757;DHT22;2392;52.578;13.426;2024-02-21T10:00:53;10.30;99.90
4757;DHT22;2392;52.578;13.426;2024-02-21T10:03:19;10.30;99.90
4757;DHT22;2392;52.578;13.426;2024-02-21T10:05:49;10.30;99.90
4757;DHT22;2392;52.578;13.426;2024-02-21T10:08:16;10.30;99.90
4757;DHT22;2392;52.578;13.426;2024-02-21T10:10:44;10.30;99.90
4757;DHT22;2392;52.578;13.426;2024-02-21T10:13:23;10.20;99.90
4757;DHT22;2392;52.578;13.426;2024-02-21T10:16:00;10.20;99.90
4757;DHT22;2392;52.578;13.426;2024-02-21T10:18:27;10.20;99.90
4757;DHT22;2392;52.578;13.426;2024-02-21T10:21:01;10.30;99.90
4757;DHT22;2392;52.578;13.426;2024-02-21T10:23:29;10.30;99.90
4757;DHT22;2392;52.578;13.426;2024-02-21T10:26:05;10.40;99.90
4757;DHT22;2392;52.578;13.426;2024-02-21T10:28:32;10.50;99.90
4757;DHT22;2392;52.578;13.426;2024-02-21T10:30:58;10.60;99.90
4757;DHT22;2392;52.578;13.426;2024-02-21T10:33:25;10.70;99.90
4757;DHT22;2392;52.578;13.426;2024-02-21T10:35:53;10.90;99.90
4757;DHT22;2392;52.578;13.426;2024-02-21T10:38:22;11.20;99.90
4757;DHT22;2392;52.578;13.426;2024-02-21T10:40:49;11.40;99.90
4757;DHT22;2392;52.578;13.426;2024-02-21T10:43:19;11.30;99.90
4757;DHT22;2392;52.578;13.426;2024-02-21T10:45:47;11.30;99.90
4757;DHT22;2392;52.578;13.426;2024-02-21T10:48:15;11.20;99.90
4757;DHT22;2392;52.578;13.426;2024-02-21T10:50:56;11.00;99.90
4757;DHT22;2392;52.578;13.426;2024-02-21T10:53:32;10.90;99.90
4757;DHT22;2392;52.578;13.426;2024-02-21T10:56:06;10.90;99.90
4757;DHT22;2392;52.578;13.426;2024-02-21T10:58:38;10.80;99.90
4757;DHT22;2392;52.578;13.426;2024-02-21T11:01:06;10.80;99.90
4757;DHT22;2392;52.578;13.426;2024-02-21T11:03:34;10.70;99.90
4757;DHT22;2392;52.578;13.426;2024-02-21T11:06:03;10.70;99.90
4757;DHT22;2392;52.578;13.426;2024-02-21T11:08:32;10.70;99.90
4757;DHT22;2392;52.578;13.426;2024-02-21T11:10:59;10.60;99.90
4757;DHT22;2392;52.578;13.426;2024-02-21T11:13:34;10.60;99.90
4757;DHT22;2392;52.578;13.426;2024-02-21T11:16:08;10.60;99.90
4757;DHT22;2392;52.578;13.426;2024-02-21T11:18:36;10.70;99.90
4757;DHT22;2392;52.578;13.426;2024-02-21T11:21:03;10.80;99.90
4757;DHT22;2392;52.578;13.426;2024-02-21T11:23:31;10.90;99.90
4757;DHT22;2392;52.578;13.426;2024-02-21T11:26:05;10.80;99.90
4757;DHT22;2392;52.578;13.426;2024-02-21T11:28:32;10.80;99.90
4757;DHT22;2392;52.578;13.426;2024-02-21T11:31:07;10.90;99.90
4757;DHT22;2392;52.578;13.426;2024-02-21T11:33:34;10.90;99.90
4757;DHT22;2392;52.578;13.426;2024-02-21T11:36:01;11.00;99.90
4757;DHT22;2392;52.578;13.426;2024-02-21T11:38:29;11.10;99.90
4757;DHT22;2392;52.578;13.426;2024-02-21T11:40:57;11.20;99.90
4757;DHT22;2392;52.578;13.426;2024-02-21T11:43:24;11.30;99.90
4757;DHT22;2392;52.578;13.426;2024-02-21T11:45:58;11.40;99.90
4757;DHT22;2392;52.578;13.426;2024-02-21T11:48:25;11.50;99.90
4757;DHT22;2392;52.578;13.426;2024-02-21T11:50:55;11.70;99.90
4757;DHT22;2392;52.578;13.426;2024-02-21T11:53:22;11.80;99.90
4757;DHT22;2392;52.578;13.426;2024-02-21T11:55:49;11.80;99.90
4757;DHT22;2392;52.578;13.426;2024-02-21T11:58:17;11.90;99.90
4757;DHT22;2392;52.578;13.426;2024-02-21T12:00:44;11.90;99.90
4757;DHT22;2392;52.578;13.426;2024-02-21T12:03:11;12.00;99.90
4757;DHT22;2392;52.578;13.426;2024-02-21T12:05:37;12.00;99.90
4757;DHT22;2392;52.578;13.426;2024-02-21T12:08:04;12.00;99.90
4757;DHT22;2392;52.578;13.426;2024-02-21T12:10:32;12.00;99.90
4757;DHT22;2392;52.578;13.426;2024-02-21T12:13:07;12.00;99.90
4757;DHT22;2392;52.578;13.426;2024-02-21T12:15:35;12.10;99.90
4757;DHT22;2392;52.578;13.426;2024-02-21T12:18:02;12.20;99.90
4757;DHT22;2392;52.578;13.426;2024-02-21T12:20:30;12.20;99.90
4757;DHT22;2392;52.578;13.426;2024-02-21T12:23:00;12.20;99.90
4757;DHT22;2392;52.578;13.426;2024-02-21T12:25:27;12.30;99.90
4757;DHT22;2392;52.578;13.426;2024-02-21T12:27:54;12.50;99.90
4757;DHT22;2392;52.578;13.426;2024-02-21T12:30:21;12.60;99.90
4757;DHT22;2392;52.578;13.426;2024-02-21T12:32:49;12.60;99.90
4757;DHT22;2392;52.578;13.426;2024-02-21T12:35:16;12.60;99.90
4757;DHT22;2392;52.578;13.426;2024-02-21T12:37:44;12.70;99.90
4757;DHT22;2392;52.578;13.426;2024-02-21T12:40:11;12.90;99.90
4757;DHT22;2392;52.578;13.426;2024-02-21T12:42:38;13.00;99.90
4757;DHT22;2392;52.578;13.426;2024-02-21T12:45:06;13.30;99.90
4757;DHT22;2392;52.578;13.426;2024-02-21T12:47:33;13.80;99.90
4757;DHT22;2392;52.578;13.426;2024-02-21T12:50:01;14.20;99.90
4757;DHT22;2392;52.578;13.426;2024-02-21T12:52:29;14.50;99.90
4757;DHT22;2392;52.578;13.426;2024-02-21T12:54:56;14.50;99.90
4757;DHT22;2392;52.578;13.426;2024-02-21T12:57:24;14.60;99.90
4757;DHT22;2392;52.578;13.426;2024-02-21T12:59:51;14.40;99.90
4757;DHT22;2392;52.578;13.426;2024-02-21T13:02:17;14.10;99.90
4757;DHT22;2392;52.578;13.426;2024-02-21T13:04:45;13.90;99.90
4757;DHT22;2392;52.578;13.426;2024-02-21T13:07:13;13.70;99.90
4757;DHT22;2392;52.578;13.426;2024-02-21T13:09:40;13.50;99.90
4757;DHT22;2392;52.578;13.426;2024-02-21T13:12:07;13.40;99.90
4757;DHT22;2392;52.578;13.426;2024-02-21T13:14:34;13.20;99.90
4757;DHT22;2392;52.578;13.426;2024-02-21T13:17:02;13.00;99.90
4757;DHT22;2392;52.578;13.426;2024-02-21T13:19:29;12.90;99.90
4757;DHT22;2392;52.578;13.426;2024-02-21T13:21:55;12.90;99.90
4757;DHT22;2392;52.578;13.426;2024-02-21T13:24:23;12.70;99.90
4757;DHT22;2392;52.578;13.426;2024-02-21T13:26:50;12.60;99.90
4757;DHT22;2392;52.578;13.426;2024-02-21T13:29:16;12.50;99.90
4757;DHT22;2392;52.578;13.426;2024-02-21T13:31:44;12.40;99.90
4757;DHT22;2392;52.578;13.426;2024-02-21T13:34:11;12.30;99.90
4757;DHT22;2392;52.578;13.426;2024-02-21T13:36:37;12.20;99.90
4757;DHT22;2392;52.578;13.426;2024-02-21T13:39:04;12.10;99.90
4757;DHT22;2392;52.578;13.426;2024-02-21T13:41:32;12.10;99.90
4757;DHT22;2392;52.578;13.426;2024-02-21T13:43:59;12.00;99.90
4757;DHT22;2392;52.578;13.426;2024-02-21T13:46:26;12.00;99.90
4757;DHT22;2392;52.578;13.426;2024-02-21T13:48:54;12.00;99.90
4757;DHT22;2392;52.578;13.426;2024-02-21T13:51:29;12.00;99.90
4757;DHT22;2392;52.578;13.426;2024-02-21T13:53:56;12.00;99.90
4757;DHT22;2392;52.578;13.426;2024-02-21T13:56:23;12.10;99.90
4757;DHT22;2392;52.578;13.426;2024-02-21T13:58:51;12.10;99.90
4757;DHT22;2392;52.578;13.426;2024-02-21T14:01:18;12.00;99.90
4757;DHT22;2392;52.578;13.426;2024-02-21T14:03:44;11.90;99.90
4757;DHT22;2392;52.578;13.426;2024-02-21T14:06:11;11.80;99.90
4757;DHT22;2392;52.578;13.426;2024-02-21T14:08:37;11.80;99.90
4757;DHT22;2392;52.578;13.426;2024-02-21T14:11:05;11.80;99.90
4757;DHT22;2392;52.578;13.426;2024-02-21T14:13:32;11.70;99.90
4757;DHT22;2392;52.578;13.426;2024-02-21T14:16:00;11.70;99.90
4757;DHT22;2392;52.578;13.426;2024-02-21T14:18:26;11.60;99.90
4757;DHT22;2392;52.578;13.426;2024-02-21T14:20:53;11.60;99.90
4757;DHT22;2392;52.578;13.426;2024-02-21T14:23:20;11.60;99.90
4757;DHT22;2392;52.578;13.426;2024-02-21T14:25:47;11.60;99.90
4757;DHT22;2392;52.578;13.426;2024-02-21T14:28:13;11.60;99.90
4757;DHT22;2392;52.578;13.426;2024-02-21T14:30:40;11.60;99.90
4757;DHT22;2392;52.578;13.426;2024-02-21T14:33:08;11.50;99.90
4757;DHT22;2392;52.578;13.426;2024-02-21T14:35:34;11.60;99.90
4757;DHT22;2392;52.578;13.426;2024-02-21T14:38:01;11.60;99.90
4757;DHT22;2392;52.578;13.426;2024-02-21T14:40:28;11.60;99.90
4757;DHT22;2392;52.578;13.426;2024-02-21T14:42:55;11.60;99.90
4757;DHT22;2392;52.578;13.426;2024-02-21T14:45:22;11.60;99.90
4757;DHT22;2392;52.578;13.426;2024-02-21T14:47:49;11.60;99.90
4757;DHT22;2392;52.578;13.426;2024-02-21T14:50:17;11.60;99.90
4757;DHT22;2392;52.578;13.426;2024-02-21T14:52:44;11.50;99.90
4757;DHT22;2392;52.578;13.426;2024-02-21T14:55:13;11.50;99.90
4757;DHT22;2392;52.578;13.426;2024-02-21T14:57:39;11.50;99.90
4757;DHT22;2392;52.578;13.426;2024-02-21T15:00:09;11.50;99.90
4757;DHT22;2392;52.578;13.426;2024-02-21T15:02:36;11.60;99.90
4757;DHT22;2392;52.578;13.426;2024-02-21T15:05:03;11.60;99.90
4757;DHT22;2392;52.578;13.426;2024-02-21T15:07:32;11.60;99.90
4757;DHT22;2392;52.578;13.426;2024-02-21T15:09:58;11.60;99.90
4757;DHT22;2392;52.578;13.426;2024-02-21T15:12:25;11.60;99.90
4757;DHT22;2392;52.578;13.426;2024-02-21T15:14:52;11.60;99.90
4757;DHT22;2392;52.578;13.426;2024-02-21T15:17:18;11.50;99.90
4757;DHT22;2392;52.578;13.426;2024-02-21T15:19:45;11.50;99.90
4757;DHT22;2392;52.578;13.426;2024-02-21T15:22:13;11.50;99.90
4757;DHT22;2392;52.578;13.426;2024-02-21T15:24:41;11.50;99.90
4757;DHT22;2392;52.578;13.426;2024-02-21T15:27:08;11.50;99.90
4757;DHT22;2392;52.578;13.426;2024-02-21T15:29:35;11.50;99.90
4757;DHT22;2392;52.578;13.426;2024-02-21T15:32:02;11.40;99.90
4757;DHT22;2392;52.578;13.426;2024-02-21T15:34:29;11.50;99.90
4757;DHT22;2392;52.578;13.426;2024-02-21T15:36:56;11.40;99.90
4757;DHT22;2392;52.578;13.426;2024-02-21T15:39:23;11.40;99.90
4757;DHT22;2392;52.578;13.426;2024-02-21T15:41:54;11.40;99.90
4757;DHT22;2392;52.578;13.426;2024-02-21T15:44:22;11.40;99.90
4757;DHT22;2392;52.578;13.426;2024-02-21T15:46:48;11.30;99.90
4757;DHT22;2392;52.578;13.426;2024-02-21T15:49:16;11.30;99.90
4757;DHT22;2392;52.578;13.426;2024-02-21T15:51:43;11.20;99.90
4757;DHT22;2392;52.578;13.426;2024-02-21T15:54:09;11.10;99.90
4757;DHT22;2392;52.578;13.426;2024-02-21T15:56:36;11.10;99.90